createdAt,value
2022-12-18T00:01:29.632Z,12.18
2022-12-18T00:05:31.370Z,11.52
2022-12-18T00:09:39.580Z,8.95
2022-12-18T00:13:42.860Z,11.00
2022-12-18T00:17:44.576Z,9.95
2022-12-18T00:21:46.233Z,10.20
2022-12-18T00:25:47.850Z,11.02
2022-12-18T00:29:49.981Z,7.43
2022-12-18T00:33:55.412Z,9.23
2022-12-18T00:37:57.222Z,9.25
2022-12-18T00:42:17.423Z,8.70
2022-12-18T00:46:19.078Z,12.95
2022-12-18T00:50:22.629Z,10.77
2022-12-18T00:54:24.475Z,9.02
2022-12-18T00:58:26.260Z,9.50
2022-12-18T01:02:28.140Z,8.43
2022-12-18T01:06:30.759Z,10.90
2022-12-18T01:10:32.365Z,9.82
2022-12-18T01:14:33.992Z,8.43
2022-12-18T01:18:36.422Z,11.20
2022-12-18T01:22:38.121Z,10.10
2022-12-18T01:26:39.882Z,10.80
2022-12-18T01:30:41.503Z,12.45
2022-12-18T01:34:43.165Z,9.88
2022-12-18T01:38:45.358Z,8.52
2022-12-18T01:42:53.811Z,8.68
2022-12-18T01:46:55.968Z,11.00
2022-12-18T01:50:57.624Z,11.07
2022-12-18T01:55:00.963Z,8.70
2022-12-18T01:59:08.815Z,9.65
2022-12-18T02:03:10.700Z,12.65
2022-12-18T02:07:40.543Z,11.20
2022-12-18T02:11:44.936Z,10.30
2022-12-18T02:16:00.908Z,11.40
2022-12-18T02:20:09.260Z,11.63
2022-12-18T02:24:13.940Z,9.90
2022-12-18T02:28:18.743Z,11.57
2022-12-18T02:32:26.621Z,9.75
2022-12-18T02:36:30.446Z,10.60
2022-12-18T02:40:32.722Z,10.65
2022-12-18T02:44:36.269Z,10.48
2022-12-18T02:48:38.445Z,12.07
2022-12-18T02:52:56.663Z,11.05
2022-12-18T02:57:06.487Z,11.65
2022-12-18T03:01:43.696Z,12.93
2022-12-18T03:06:06.539Z,8.10
2022-12-18T03:10:12.734Z,10.38
2022-12-18T03:14:17.450Z,9.48
2022-12-18T03:18:26.913Z,9.95
2022-12-18T03:22:31.749Z,13.15
2022-12-18T03:26:36.180Z,8.13
2022-12-18T03:30:40.846Z,11.18
2022-12-18T03:34:44.731Z,11.38
2022-12-18T03:38:46.417Z,8.60
2022-12-18T03:42:54.940Z,6.97
2022-12-18T03:47:13.554Z,9.18
2022-12-18T03:51:26.137Z,6.80
2022-12-18T03:55:30.383Z,7.05
2022-12-18T03:59:34.246Z,8.13
2022-12-18T04:03:38.345Z,8.10
2022-12-18T04:07:41.249Z,8.20
2022-12-18T04:11:46.206Z,8.05
2022-12-18T04:15:47.913Z,8.80
2022-12-18T04:19:49.675Z,7.12
2022-12-18T04:23:51.303Z,9.50
2022-12-18T04:27:53.030Z,8.52
2022-12-18T04:31:55.190Z,6.62
2022-12-18T04:35:56.862Z,6.10
2022-12-18T04:39:58.537Z,8.52
2022-12-18T04:44:00.230Z,5.87
2022-12-18T04:48:03.036Z,5.85
2022-12-18T04:52:04.809Z,6.28
2022-12-18T04:56:15.124Z,5.53
2022-12-18T05:00:17.003Z,7.20
2022-12-18T05:04:18.715Z,7.82
2022-12-18T05:08:21.593Z,6.93
2022-12-18T05:12:26.132Z,7.32
2022-12-18T05:16:27.827Z,5.15
2022-12-18T05:20:30.079Z,7.70
2022-12-18T05:24:31.760Z,5.78
2022-12-18T05:28:35.269Z,6.05
2022-12-18T05:32:36.954Z,4.72
2022-12-18T05:36:38.703Z,5.35
2022-12-18T05:40:43.500Z,6.03
2022-12-18T05:44:45.396Z,6.75
2022-12-18T05:48:47.205Z,5.37
2022-12-18T05:52:48.869Z,6.60
2022-12-18T05:56:50.602Z,6.32
2022-12-18T06:00:52.226Z,5.15
2022-12-18T06:04:53.843Z,5.57
2022-12-18T06:08:56.166Z,6.00
2022-12-18T06:12:57.807Z,6.22
2022-12-18T06:16:59.455Z,6.03
2022-12-18T06:21:01.461Z,6.22
2022-12-18T06:25:03.394Z,4.65
2022-12-18T06:29:05.497Z,5.68
2022-12-18T06:33:07.601Z,5.78
2022-12-18T06:37:09.220Z,5.47
2022-12-18T06:41:13.901Z,6.10
2022-12-18T06:45:15.711Z,7.35
2022-12-18T06:49:17.439Z,7.78
2022-12-18T06:53:19.067Z,7.47
2022-12-18T06:57:20.702Z,8.18
2022-12-18T07:01:23.004Z,7.18
2022-12-18T07:05:24.755Z,7.45
2022-12-18T07:09:26.391Z,6.53
2022-12-18T07:13:28.526Z,7.45
2022-12-18T07:17:30.459Z,6.47
2022-12-18T07:21:32.154Z,8.35
2022-12-18T07:25:37.884Z,7.80
2022-12-18T07:29:39.547Z,6.90
2022-12-18T07:33:42.125Z,8.65
2022-12-18T07:37:43.901Z,8.90
2022-12-18T07:42:05.601Z,7.55
2022-12-18T07:46:08.257Z,9.35
2022-12-18T07:50:10.442Z,7.28
2022-12-18T07:54:12.092Z,8.75
2022-12-18T07:58:13.811Z,9.77
2022-12-18T08:02:15.667Z,9.05
2022-12-18T08:06:17.479Z,8.00
2022-12-18T08:10:19.526Z,10.32
2022-12-18T08:14:21.177Z,9.95
2022-12-18T08:18:22.798Z,8.57
2022-12-18T08:22:24.535Z,8.85
2022-12-18T08:26:28.070Z,9.35
2022-12-18T08:30:29.721Z,10.02
2022-12-18T08:34:31.614Z,8.35
2022-12-18T08:38:36.890Z,9.38
2022-12-18T08:42:57.154Z,7.53
2022-12-18T08:46:58.887Z,9.25
2022-12-18T08:51:01.145Z,8.75
2022-12-18T08:55:02.772Z,8.20
2022-12-18T08:59:05.251Z,8.45
2022-12-18T09:03:12.776Z,7.80
2022-12-18T09:07:14.396Z,8.20
2022-12-18T09:11:21.907Z,8.18
2022-12-18T09:15:23.550Z,9.88
2022-12-18T09:19:25.431Z,9.45
2022-12-18T09:23:27.077Z,7.43
2022-12-18T09:27:28.709Z,9.45
2022-12-18T09:31:30.291Z,7.05
2022-12-18T09:35:31.967Z,7.28
2022-12-18T09:39:36.752Z,9.48
2022-12-18T09:43:51.079Z,8.63
2022-12-18T09:47:55.213Z,9.32
2022-12-18T09:52:06.175Z,8.27
2022-12-18T09:56:16.478Z,6.57
2022-12-18T10:00:22.430Z,8.85
2022-12-18T10:04:25.489Z,8.37
2022-12-18T10:08:54.320Z,7.78
2022-12-18T10:13:12.830Z,8.73
2022-12-18T10:17:37.270Z,8.40
2022-12-18T10:22:01.154Z,7.78
2022-12-18T10:26:06.996Z,7.55
2022-12-18T10:30:21.646Z,8.90
2022-12-18T10:34:24.408Z,9.82
2022-12-18T10:38:31.379Z,8.45
2022-12-18T10:46:34.677Z,8.23
2022-12-18T10:51:09.586Z,9.48
2022-12-18T10:55:03.511Z,10.43
2022-12-18T10:59:11.089Z,9.55
2022-12-18T11:03:38.570Z,9.05
2022-12-18T11:07:51.866Z,9.50
2022-12-18T11:11:56.299Z,9.10
2022-12-18T11:15:58.740Z,8.93
2022-12-18T11:20:20.647Z,9.32
2022-12-18T11:24:32.189Z,11.07
2022-12-18T11:28:47.930Z,9.05
2022-12-18T11:33:11.186Z,9.35
2022-12-18T11:37:14.573Z,8.20
2022-12-18T11:42:08.495Z,9.57
2022-12-18T11:46:19.613Z,9.93
2022-12-18T11:50:52.272Z,8.32
2022-12-18T11:55:00.723Z,8.90
2022-12-18T11:59:17.433Z,10.15
2022-12-18T12:03:44.784Z,13.50
2022-12-18T12:12:20.897Z,10.80
2022-12-18T12:16:38.513Z,10.23
2022-12-18T12:21:22.182Z,13.30
2022-12-18T12:25:55.818Z,14.07
2022-12-18T12:30:10.472Z,10.50
2022-12-18T12:34:27.296Z,12.40
2022-12-18T12:38:36.416Z,13.62
2022-12-18T12:43:09.131Z,10.73
2022-12-18T12:47:21.687Z,11.88
2022-12-18T12:51:25.004Z,12.98
2022-12-18T12:55:29.253Z,14.18
2022-12-18T12:59:48.931Z,15.00
2022-12-18T13:04:01.912Z,15.25
2022-12-18T13:08:26.737Z,14.43
2022-12-18T13:12:47.562Z,13.77
2022-12-18T13:16:49.627Z,14.05
2022-12-18T13:21:19.771Z,13.85
2022-12-18T13:25:33.622Z,14.75
2022-12-18T13:29:46.897Z,13.57
2022-12-18T13:38:38.841Z,16.00
2022-12-18T13:43:00.099Z,17.05
2022-12-18T13:47:05.105Z,15.15
2022-12-18T13:51:11.730Z,16.37
2022-12-18T13:55:19.592Z,16.67
2022-12-18T13:59:25.183Z,15.93
2022-12-18T14:03:30.063Z,15.60
2022-12-18T14:07:39.596Z,16.55
2022-12-18T14:11:51.789Z,17.08
2022-12-18T14:15:54.610Z,20.33
2022-12-18T14:19:56.878Z,17.80
2022-12-18T14:24:19.745Z,16.55
2022-12-18T14:28:22.952Z,17.17
2022-12-18T14:32:24.979Z,16.33
2022-12-18T14:36:28.608Z,17.25
2022-12-18T14:40:30.308Z,17.92
2022-12-18T14:44:44.203Z,16.85
2022-12-18T14:48:53.205Z,16.23
2022-12-18T14:52:54.915Z,19.33
2022-12-18T14:57:06.944Z,20.95
2022-12-18T15:01:08.676Z,22.20
2022-12-18T15:05:19.025Z,19.37
2022-12-18T15:09:26.146Z,21.90
2022-12-18T15:13:27.943Z,18.25
2022-12-18T15:17:29.742Z,20.75
2022-12-18T15:21:32.480Z,19.98
2022-12-18T15:25:40.474Z,19.52
2022-12-18T15:29:42.107Z,20.45
2022-12-18T15:33:46.957Z,22.35
2022-12-18T15:37:49.391Z,25.92
2022-12-18T15:42:10.057Z,19.55
2022-12-18T15:46:17.151Z,19.00
2022-12-18T15:50:18.895Z,19.27
2022-12-18T15:54:41.741Z,21.27
2022-12-18T15:58:43.468Z,21.83
2022-12-18T16:02:45.334Z,19.17
2022-12-18T16:11:44.837Z,21.42
2022-12-18T16:15:46.563Z,21.70
2022-12-18T16:19:48.218Z,20.95
2022-12-18T16:23:49.860Z,26.95
2022-12-18T16:27:52.725Z,21.35
2022-12-18T16:31:55.858Z,26.20
2022-12-18T16:35:57.438Z,22.50
2022-12-18T16:39:59.144Z,26.73
2022-12-18T16:44:00.959Z,22.90
2022-12-18T16:48:02.601Z,23.85
2022-12-18T16:52:05.618Z,19.95
2022-12-18T16:56:07.345Z,21.67
2022-12-18T17:00:09.677Z,23.67
2022-12-18T17:04:11.368Z,24.95
2022-12-18T17:08:13.045Z,24.90
2022-12-18T17:12:14.634Z,25.62
2022-12-18T17:16:17.412Z,28.35
2022-12-18T17:20:19.158Z,26.27
2022-12-18T17:24:21.823Z,24.87
2022-12-18T17:28:25.861Z,27.45
2022-12-18T17:32:28.006Z,26.92
2022-12-18T17:36:32.136Z,28.50
2022-12-18T17:40:33.779Z,30.02
2022-12-18T17:44:35.515Z,28.95
2022-12-18T17:48:37.394Z,29.48
2022-12-18T17:52:40.114Z,33.70
2022-12-18T17:56:41.867Z,27.00
2022-12-18T18:00:43.539Z,29.27
2022-12-18T18:04:45.151Z,30.12
2022-12-18T18:08:46.915Z,31.37
2022-12-18T18:13:07.101Z,28.12
2022-12-18T18:17:08.723Z,28.50
2022-12-18T18:21:10.412Z,32.22
2022-12-18T18:25:12.320Z,33.58
2022-12-18T18:29:17.835Z,29.77
2022-12-18T18:33:19.455Z,32.95
2022-12-18T18:37:21.122Z,33.72
2022-12-18T18:41:24.541Z,33.90
2022-12-18T18:45:26.315Z,33.63
2022-12-18T18:49:28.277Z,29.17
2022-12-18T18:53:30.511Z,36.90
2022-12-18T18:57:33.567Z,31.65
2022-12-18T19:01:35.433Z,33.35
2022-12-18T19:05:37.222Z,32.60
2022-12-18T19:09:38.893Z,34.80
2022-12-18T19:13:40.831Z,35.22
2022-12-18T19:17:42.850Z,36.90
2022-12-18T19:21:49.954Z,33.93
2022-12-18T19:26:04.252Z,35.45
2022-12-18T19:30:13.682Z,35.95
2022-12-18T19:34:15.434Z,36.35
2022-12-18T19:38:17.094Z,33.75
2022-12-18T19:42:24.921Z,37.70
2022-12-18T19:46:28.384Z,37.42
2022-12-18T19:50:30.094Z,35.10
2022-12-18T19:54:34.530Z,38.08
2022-12-18T19:58:36.732Z,34.58
2022-12-18T20:02:38.712Z,37.08
2022-12-18T20:06:52.561Z,34.03
2022-12-18T20:10:54.287Z,32.45
2022-12-18T20:14:56.316Z,35.53
2022-12-18T20:18:58.481Z,36.88
2022-12-18T20:23:00.275Z,32.67
2022-12-18T20:27:02.556Z,35.65
2022-12-18T20:31:08.092Z,37.10
2022-12-18T20:35:12.103Z,35.65
2022-12-18T20:39:15.086Z,36.28
2022-12-18T20:43:17.606Z,37.65
2022-12-18T20:47:19.338Z,32.70
2022-12-18T20:51:21.900Z,35.63
2022-12-18T20:55:23.536Z,34.28
2022-12-18T20:59:25.914Z,36.30
2022-12-18T21:03:27.779Z,34.30
2022-12-18T21:07:29.454Z,35.03
2022-12-18T21:11:51.702Z,34.53
2022-12-18T21:15:54.870Z,36.85
2022-12-18T21:19:56.775Z,33.15
2022-12-18T21:23:58.705Z,34.60
2022-12-18T21:28:00.441Z,35.53
2022-12-18T21:32:02.899Z,37.17
2022-12-18T21:36:06.357Z,36.17
2022-12-18T21:40:08.857Z,36.95
2022-12-18T21:44:16.081Z,35.63
2022-12-18T21:48:17.750Z,38.42
2022-12-18T21:52:21.591Z,39.38
2022-12-18T21:56:48.672Z,34.53
2022-12-18T22:00:50.463Z,38.17
2022-12-18T22:04:52.086Z,34.28
2022-12-18T22:08:54.831Z,33.00
2022-12-18T22:12:56.727Z,37.15
2022-12-18T22:16:58.655Z,34.72
2022-12-18T22:21:02.921Z,33.00
2022-12-18T22:25:04.797Z,35.15
2022-12-18T22:29:25.341Z,36.85
2022-12-18T22:33:27.344Z,34.17
2022-12-18T22:37:29.051Z,36.50
2022-12-18T22:41:30.717Z,37.20
2022-12-18T22:45:37.367Z,39.35
2022-12-18T22:49:40.084Z,35.70
2022-12-18T22:53:42.560Z,35.63
2022-12-18T22:57:48.725Z,36.78
2022-12-18T23:01:54.523Z,38.45
2022-12-18T23:06:07.475Z,40.78
2022-12-18T23:10:09.437Z,40.50
2022-12-18T23:14:11.728Z,36.60
2022-12-18T23:18:13.374Z,35.70
2022-12-18T23:22:14.983Z,34.13
2022-12-18T23:26:20.377Z,36.05
2022-12-18T23:30:22.026Z,39.03
2022-12-18T23:34:23.817Z,41.17
2022-12-18T23:38:25.434Z,36.60
2022-12-18T23:42:27.088Z,43.20
2022-12-18T23:46:32.219Z,37.28
2022-12-18T23:50:35.650Z,42.50
2022-12-18T23:54:39.227Z,44.17
2022-12-18T23:58:42.300Z,38.88
